(°C)
-4°
-4°
-4°
-5°
-5°
-6°
-7°
(°C)
-8°
-8°
-8°
-9°
-10°
-10°
-11°
NNE
NE
NNE
NE
NE
NE
NE
(km/h)
6-8
7-10
7-12
7-12
7-11
6-9
6-9
(mm)
1
0
0
0
0
0
0
(%)
25
0
0
0
0
0
0

Elevação do sol

/ 14.6°
sun-icon
UV 0
08:37
16:47
Minguante gibosa (244°)
23:18
10:55

METAR para 55.6°N 37.27°L (UUWW)

Hora Condições Temperatura/
Ponto de condensação
Vento Visibilidade Tempo Nuvens Pressão Mudança Bruto
MVFR -4°C / -6°C 80º 4kt 6000m Light Snow 1.00mm precipitation Vertical Visibility of 0ft.
Broken Clouds 3600ft
1025 No Significant change. Runway 06: Wet snow, 11-25% contamination with 5mm, friction coefficient 0.45. UUWW 230930Z 08002MPS 6000 -SN BKN010 BKN036 M04/M06 Q1025 R06/520545 NOSIG
MVFR -4°C / -6°C 70º 4kt 7000m Light Snow 1.00mm precipitation Vertical Visibility of 0ft.
Broken Clouds 3600ft
1024 No Significant change. Runway 06: Wet snow, 11-25% contamination with 5mm, friction coefficient 0.45. UUWW 230900Z 07002MPS 7000 -SN BKN010 BKN036 M04/M06 Q1024 R06/520545 NOSIG
MVFR -4°C / -6°C 90º 4kt 7000m Light Snow 1.00mm precipitation Vertical Visibility of 0ft.
Broken Clouds 3300ft
1024 No Significant change. Runway 06: Wet snow, 11-25% contamination with 5mm, friction coefficient 0.45. UUWW 230830Z 09002MPS 7000 -SN BKN010 BKN033 M04/M06 Q1024 R06/520545 NOSIG
MVFR -4°C / -6°C 40º 4kt 6000m Light Snow 1.00mm precipitation Vertical Visibility of 0ft.
Broken Clouds 3000ft
1023 No Significant change. Runway 06: Wet snow, 11-25% contamination with 5mm, friction coefficient 0.45. UUWW 230800Z 04002MPS 6000 -SN BKN010 BKN030 M04/M06 Q1023 R06/520545 NOSIG
IFR -4°C / -6°C 90º 4kt 5000m Light Snow Mist 1.00mm precipitation Vertical Visibility of 0ft.
Broken Clouds 3000ft
1023 No Significant change. Runway 06: Wet snow, 11-25% contamination with 5mm, friction coefficient 0.45. UUWW 230730Z 09002MPS 5000 -SN BR BKN009 BKN030 M04/M06 Q1023 R06/520545 NOSIG
IFR -4°C / -6°C 80º 4kt 5000m Light Snow Mist 1.00mm precipitation Vertical Visibility of 0ft.
Broken Clouds 3000ft
1022 No Significant change. Runway 06: Wet snow, 11-25% contamination with 5mm, friction coefficient 0.45. UUWW 230700Z 08002MPS 5000 -SN BR BKN009 BKN030 M04/M06 Q1022 R06/520545 NOSIG
IFR -4°C / -6°C 70º 6kt 3900m Light Snow Mist 1.00mm precipitation Vertical Visibility of 0ft.
Broken Clouds 2800ft
1022 No Significant change. Runway 06: Wet snow, 11-25% contamination with 5mm, friction coefficient 0.45. UUWW 230630Z 07003MPS 3900 -SN BR BKN008 BKN028 M04/M06 Q1022 R06/520545 NOSIG
IFR -4°C / -6°C 70º 6kt 5000m Light Snow Mist 1.00mm precipitation Vertical Visibility of 0ft.
Broken Clouds 3000ft
1021 No Significant change. Runway 06: Wet snow, 11-25% contamination with 5mm, friction coefficient 0.45. UUWW 230600Z 07003MPS 5000 -SN BR BKN009 BKN030 M04/M06 Q1021 R06/520545 NOSIG
IFR -4°C / -6°C 80º 4kt 6000m Light Snow 1.00mm precipitation Vertical Visibility of 0ft.
Broken Clouds 2800ft
1021 No Significant change. Runway 06: Wet snow, 11-25% contamination with 5mm, friction coefficient 0.45. UUWW 230530Z 08002MPS 6000 -SN BKN008 BKN028 M04/M06 Q1021 R06/520545 NOSIG
IFR -4°C / -6°C 70º 6kt 7000m Light Snow 1.00mm precipitation Vertical Visibility of 0ft.
Broken Clouds 2300ft
1020 No Significant change. Runway 06: Wet snow, 11-25% contamination with 5mm, friction coefficient 0.45. UUWW 230500Z 07003MPS 7000 -SN BKN007 BKN023 M04/M06 Q1020 R06/520545 NOSIG
IFR -4°C / -6°C 80º 6kt 5000m Light Snow Mist 1.00mm precipitation Vertical Visibility of 0ft.
Broken Clouds 2300ft
1020 No Significant change. Runway 06: Wet snow, 11-25% contamination with 5mm, friction coefficient 0.45. UUWW 230430Z 08003MPS 5000 -SN BR BKN007 BKN023 M04/M06 Q1020 R06/520545 NOSIG
IFR -4°C / -6°C 70º 6kt 5000m Light Snow Mist 1.00mm precipitation Vertical Visibility of 0ft.
Broken Clouds 2300ft
1019 No Significant change. Runway 06: Wet snow, 11-25% contamination with 5mm, friction coefficient 0.45. UUWW 230400Z 07003MPS 5000 -SN BR BKN006 BKN023 M04/M06 Q1019 R06/520545 NOSIG
IFR -4°C / -6°C 80º 6kt 5000m Light Snow Mist 1.00mm precipitation Vertical Visibility of 0ft.
Broken Clouds 2300ft
1018 No Significant change. Runway 06: Wet snow, 11-25% contamination with 5mm, friction coefficient 0.45. UUWW 230330Z 08003MPS 5000 -SN BR BKN005 BKN023 M04/M06 Q1018 R06/520545 NOSIG
IFR -4°C / -6°C 80º 2kt 4400m Mist Vertical Visibility of 0ft.
Broken Clouds 2300ft
1018 No Significant change. Runway 01: Dry snow, 26-50% contamination with 5mm, friction coefficient 0.40. UUWW 230300Z 08001MPS 4400 BR BKN005 BKN023 M04/M06 Q1018 R01/450540 NOSIG
LIFR -4°C / -6°C 80º variable 060º to 130º 6kt 5000m Mist Vertical Visibility of 0ft.
Broken Clouds 2300ft
1017 No Significant change. Runway 01: Dry snow, 26-50% contamination with 5mm, friction coefficient 0.40. UUWW 230230Z 08003MPS 060V130 5000 BR BKN004 BKN023 M04/M06 Q1017 R01/450540 NOSIG
IFR -4°C / -6°C 80º 6kt 5000m Mist Vertical Visibility of 0ft.
Broken Clouds 2300ft
1017 No Significant change. Runway 01: Dry snow, 26-50% contamination with 5mm, friction coefficient 0.40. UUWW 230200Z 08003MPS 5000 BR BKN005 BKN023 M04/M06 Q1017 R01/450540 NOSIG
IFR -4°C / -6°C 90º 8kt 5000m Light Snow 1.00mm precipitation Vertical Visibility of 0ft.
Broken Clouds 2300ft
1016 No Significant change. Runway 06: Wet snow, 51-100% contamination with 5mm, friction coefficient 0.35. UUWW 230130Z 09004MPS 5000 -SN BKN005 BKN023 M04/M06 Q1016 R06/590535 NOSIG
IFR -4°C / -6°C 90º 6kt 4700m Light Snow 1.00mm precipitation Vertical Visibility of 0ft.
Broken Clouds 2300ft
1016 No Significant change. Runway 06: Wet snow, 51-100% contamination with 5mm, friction coefficient 0.35. UUWW 230100Z 09003MPS 4700 -SN BKN005 BKN023 M04/M06 Q1016 R06/590535 NOSIG
IFR -4°C / -6°C 100º 8kt 4600m Light Snow 1.00mm precipitation Vertical Visibility of 0ft.
Broken Clouds 2300ft
1016 No Significant change. Runway 06: Wet snow, 51-100% contamination with 5mm, friction coefficient 0.35. UUWW 230030Z 10004MPS 4600 -SN BKN005 BKN023 M04/M06 Q1016 R06/590535 NOSIG
IFR -4°C / -6°C 90º 6kt 5000m Light Snow 1.00mm precipitation Vertical Visibility of 0ft.
Broken Clouds 2000ft
1015 No Significant change. Runway 06: Wet snow, 51-100% contamination with 5mm, friction coefficient 0.35. UUWW 230000Z 09003MPS 5000 -SN BKN006 BKN020 M04/M06 Q1015 R06/590535 NOSIG
IFR -5°C / -6°C 100º 6kt 6000m Light Snow 1.00mm precipitation Vertical Visibility of 0ft.
Overcast 2300ft
1015 No Significant change. Runway 06: Wet snow, 51-100% contamination with 5mm, friction coefficient 0.35. UUWW 222330Z 10003MPS 6000 -SN BKN006 OVC023 M05/M06 Q1015 R06/590535 NOSIG
IFR -5°C / -6°C 110º 8kt 6000m Light Snow 1.00mm precipitation Vertical Visibility of 0ft.
Overcast 2000ft
1014 No Significant change. Runway 06: Wet snow, 51-100% contamination with 5mm, friction coefficient 0.35. UUWW 222300Z 11004MPS 6000 -SN BKN006 OVC020 M05/M06 Q1014 R06/590535 NOSIG
IFR -4°C / -6°C 110º 8kt 6000m Light Snow 1.00mm precipitation Vertical Visibility of 0ft.
Overcast 2000ft
1014 No Significant change. Runway 06: Wet snow, 51-100% contamination with 5mm, friction coefficient 0.35. UUWW 222230Z 11004MPS 6000 -SN BKN005 OVC020 M04/M06 Q1014 R06/590535 NOSIG
IFR -4°C / -6°C 90º 8kt 4900m Light Snow 1.00mm precipitation Vertical Visibility of 0ft.
Broken Clouds 2300ft
1014 No Significant change. Runway 06: Wet snow, 51-100% contamination with 5mm, friction coefficient 0.35. UUWW 222200Z 09004MPS 4900 -SN BKN006 BKN023 M04/M06 Q1014 R06/590535 NOSIG

MVFR

-4°C / -6°C

[Mais]
Vento 80º 4kt
Visibilidade 6000m
Tempo Light Snow 1.00mm precipitation
Nuvens Vertical Visibility of 0ft.
Broken Clouds 3600ft
Pressão 1025
Mudança No Significant change. Runway 06: Wet snow, 11-25% contamination with 5mm, friction coefficient 0.45.
Bruto UUWW 230930Z 08002MPS 6000 -SN BKN010 BKN036 M04/M06 Q1025 R06/520545 NOSIG

MVFR

-4°C / -6°C

[Mais]
Vento 70º 4kt
Visibilidade 7000m
Tempo Light Snow 1.00mm precipitation
Nuvens Vertical Visibility of 0ft.
Broken Clouds 3600ft
Pressão 1024
Mudança No Significant change. Runway 06: Wet snow, 11-25% contamination with 5mm, friction coefficient 0.45.
Bruto UUWW 230900Z 07002MPS 7000 -SN BKN010 BKN036 M04/M06 Q1024 R06/520545 NOSIG

MVFR

-4°C / -6°C

[Mais]
Vento 90º 4kt
Visibilidade 7000m
Tempo Light Snow 1.00mm precipitation
Nuvens Vertical Visibility of 0ft.
Broken Clouds 3300ft
Pressão 1024
Mudança No Significant change. Runway 06: Wet snow, 11-25% contamination with 5mm, friction coefficient 0.45.
Bruto UUWW 230830Z 09002MPS 7000 -SN BKN010 BKN033 M04/M06 Q1024 R06/520545 NOSIG

MVFR

-4°C / -6°C

[Mais]
Vento 40º 4kt
Visibilidade 6000m
Tempo Light Snow 1.00mm precipitation
Nuvens Vertical Visibility of 0ft.
Broken Clouds 3000ft
Pressão 1023
Mudança No Significant change. Runway 06: Wet snow, 11-25% contamination with 5mm, friction coefficient 0.45.
Bruto UUWW 230800Z 04002MPS 6000 -SN BKN010 BKN030 M04/M06 Q1023 R06/520545 NOSIG

IFR

-4°C / -6°C

[Mais]
Vento 90º 4kt
Visibilidade 5000m
Tempo Light Snow Mist 1.00mm precipitation
Nuvens Vertical Visibility of 0ft.
Broken Clouds 3000ft
Pressão 1023
Mudança No Significant change. Runway 06: Wet snow, 11-25% contamination with 5mm, friction coefficient 0.45.
Bruto UUWW 230730Z 09002MPS 5000 -SN BR BKN009 BKN030 M04/M06 Q1023 R06/520545 NOSIG

IFR

-4°C / -6°C

[Mais]
Vento 80º 4kt
Visibilidade 5000m
Tempo Light Snow Mist 1.00mm precipitation
Nuvens Vertical Visibility of 0ft.
Broken Clouds 3000ft
Pressão 1022
Mudança No Significant change. Runway 06: Wet snow, 11-25% contamination with 5mm, friction coefficient 0.45.
Bruto UUWW 230700Z 08002MPS 5000 -SN BR BKN009 BKN030 M04/M06 Q1022 R06/520545 NOSIG

IFR

-4°C / -6°C

[Mais]
Vento 70º 6kt
Visibilidade 3900m
Tempo Light Snow Mist 1.00mm precipitation
Nuvens Vertical Visibility of 0ft.
Broken Clouds 2800ft
Pressão 1022
Mudança No Significant change. Runway 06: Wet snow, 11-25% contamination with 5mm, friction coefficient 0.45.
Bruto UUWW 230630Z 07003MPS 3900 -SN BR BKN008 BKN028 M04/M06 Q1022 R06/520545 NOSIG

IFR

-4°C / -6°C

[Mais]
Vento 70º 6kt
Visibilidade 5000m
Tempo Light Snow Mist 1.00mm precipitation
Nuvens Vertical Visibility of 0ft.
Broken Clouds 3000ft
Pressão 1021
Mudança No Significant change. Runway 06: Wet snow, 11-25% contamination with 5mm, friction coefficient 0.45.
Bruto UUWW 230600Z 07003MPS 5000 -SN BR BKN009 BKN030 M04/M06 Q1021 R06/520545 NOSIG

IFR

-4°C / -6°C

[Mais]
Vento 80º 4kt
Visibilidade 6000m
Tempo Light Snow 1.00mm precipitation
Nuvens Vertical Visibility of 0ft.
Broken Clouds 2800ft
Pressão 1021
Mudança No Significant change. Runway 06: Wet snow, 11-25% contamination with 5mm, friction coefficient 0.45.
Bruto UUWW 230530Z 08002MPS 6000 -SN BKN008 BKN028 M04/M06 Q1021 R06/520545 NOSIG

IFR

-4°C / -6°C

[Mais]
Vento 70º 6kt
Visibilidade 7000m
Tempo Light Snow 1.00mm precipitation
Nuvens Vertical Visibility of 0ft.
Broken Clouds 2300ft
Pressão 1020
Mudança No Significant change. Runway 06: Wet snow, 11-25% contamination with 5mm, friction coefficient 0.45.
Bruto UUWW 230500Z 07003MPS 7000 -SN BKN007 BKN023 M04/M06 Q1020 R06/520545 NOSIG

IFR

-4°C / -6°C

[Mais]
Vento 80º 6kt
Visibilidade 5000m
Tempo Light Snow Mist 1.00mm precipitation
Nuvens Vertical Visibility of 0ft.
Broken Clouds 2300ft
Pressão 1020
Mudança No Significant change. Runway 06: Wet snow, 11-25% contamination with 5mm, friction coefficient 0.45.
Bruto UUWW 230430Z 08003MPS 5000 -SN BR BKN007 BKN023 M04/M06 Q1020 R06/520545 NOSIG

IFR

-4°C / -6°C

[Mais]
Vento 70º 6kt
Visibilidade 5000m
Tempo Light Snow Mist 1.00mm precipitation
Nuvens Vertical Visibility of 0ft.
Broken Clouds 2300ft
Pressão 1019
Mudança No Significant change. Runway 06: Wet snow, 11-25% contamination with 5mm, friction coefficient 0.45.
Bruto UUWW 230400Z 07003MPS 5000 -SN BR BKN006 BKN023 M04/M06 Q1019 R06/520545 NOSIG

IFR

-4°C / -6°C

[Mais]
Vento 80º 6kt
Visibilidade 5000m
Tempo Light Snow Mist 1.00mm precipitation
Nuvens Vertical Visibility of 0ft.
Broken Clouds 2300ft
Pressão 1018
Mudança No Significant change. Runway 06: Wet snow, 11-25% contamination with 5mm, friction coefficient 0.45.
Bruto UUWW 230330Z 08003MPS 5000 -SN BR BKN005 BKN023 M04/M06 Q1018 R06/520545 NOSIG

IFR

-4°C / -6°C

[Mais]
Vento 80º 2kt
Visibilidade 4400m
Tempo Mist
Nuvens Vertical Visibility of 0ft.
Broken Clouds 2300ft
Pressão 1018
Mudança No Significant change. Runway 01: Dry snow, 26-50% contamination with 5mm, friction coefficient 0.40.
Bruto UUWW 230300Z 08001MPS 4400 BR BKN005 BKN023 M04/M06 Q1018 R01/450540 NOSIG

LIFR

-4°C / -6°C

[Mais]
Vento 80º variable 060º to 130º 6kt
Visibilidade 5000m
Tempo Mist
Nuvens Vertical Visibility of 0ft.
Broken Clouds 2300ft
Pressão 1017
Mudança No Significant change. Runway 01: Dry snow, 26-50% contamination with 5mm, friction coefficient 0.40.
Bruto UUWW 230230Z 08003MPS 060V130 5000 BR BKN004 BKN023 M04/M06 Q1017 R01/450540 NOSIG

IFR

-4°C / -6°C

[Mais]
Vento 80º 6kt
Visibilidade 5000m
Tempo Mist
Nuvens Vertical Visibility of 0ft.
Broken Clouds 2300ft
Pressão 1017
Mudança No Significant change. Runway 01: Dry snow, 26-50% contamination with 5mm, friction coefficient 0.40.
Bruto UUWW 230200Z 08003MPS 5000 BR BKN005 BKN023 M04/M06 Q1017 R01/450540 NOSIG

IFR

-4°C / -6°C

[Mais]
Vento 90º 8kt
Visibilidade 5000m
Tempo Light Snow 1.00mm precipitation
Nuvens Vertical Visibility of 0ft.
Broken Clouds 2300ft
Pressão 1016
Mudança No Significant change. Runway 06: Wet snow, 51-100% contamination with 5mm, friction coefficient 0.35.
Bruto UUWW 230130Z 09004MPS 5000 -SN BKN005 BKN023 M04/M06 Q1016 R06/590535 NOSIG

IFR

-4°C / -6°C

[Mais]
Vento 90º 6kt
Visibilidade 4700m
Tempo Light Snow 1.00mm precipitation
Nuvens Vertical Visibility of 0ft.
Broken Clouds 2300ft
Pressão 1016
Mudança No Significant change. Runway 06: Wet snow, 51-100% contamination with 5mm, friction coefficient 0.35.
Bruto UUWW 230100Z 09003MPS 4700 -SN BKN005 BKN023 M04/M06 Q1016 R06/590535 NOSIG

IFR

-4°C / -6°C

[Mais]
Vento 100º 8kt
Visibilidade 4600m
Tempo Light Snow 1.00mm precipitation
Nuvens Vertical Visibility of 0ft.
Broken Clouds 2300ft
Pressão 1016
Mudança No Significant change. Runway 06: Wet snow, 51-100% contamination with 5mm, friction coefficient 0.35.
Bruto UUWW 230030Z 10004MPS 4600 -SN BKN005 BKN023 M04/M06 Q1016 R06/590535 NOSIG

IFR

-4°C / -6°C

[Mais]
Vento 90º 6kt
Visibilidade 5000m
Tempo Light Snow 1.00mm precipitation
Nuvens Vertical Visibility of 0ft.
Broken Clouds 2000ft
Pressão 1015
Mudança No Significant change. Runway 06: Wet snow, 51-100% contamination with 5mm, friction coefficient 0.35.
Bruto UUWW 230000Z 09003MPS 5000 -SN BKN006 BKN020 M04/M06 Q1015 R06/590535 NOSIG

IFR

-5°C / -6°C

[Mais]
Vento 100º 6kt
Visibilidade 6000m
Tempo Light Snow 1.00mm precipitation
Nuvens Vertical Visibility of 0ft.
Overcast 2300ft
Pressão 1015
Mudança No Significant change. Runway 06: Wet snow, 51-100% contamination with 5mm, friction coefficient 0.35.
Bruto UUWW 222330Z 10003MPS 6000 -SN BKN006 OVC023 M05/M06 Q1015 R06/590535 NOSIG

IFR

-5°C / -6°C

[Mais]
Vento 110º 8kt
Visibilidade 6000m
Tempo Light Snow 1.00mm precipitation
Nuvens Vertical Visibility of 0ft.
Overcast 2000ft
Pressão 1014
Mudança No Significant change. Runway 06: Wet snow, 51-100% contamination with 5mm, friction coefficient 0.35.
Bruto UUWW 222300Z 11004MPS 6000 -SN BKN006 OVC020 M05/M06 Q1014 R06/590535 NOSIG

IFR

-4°C / -6°C

[Mais]
Vento 110º 8kt
Visibilidade 6000m
Tempo Light Snow 1.00mm precipitation
Nuvens Vertical Visibility of 0ft.
Overcast 2000ft
Pressão 1014
Mudança No Significant change. Runway 06: Wet snow, 51-100% contamination with 5mm, friction coefficient 0.35.
Bruto UUWW 222230Z 11004MPS 6000 -SN BKN005 OVC020 M04/M06 Q1014 R06/590535 NOSIG

IFR

-4°C / -6°C

[Mais]
Vento 90º 8kt
Visibilidade 4900m
Tempo Light Snow 1.00mm precipitation
Nuvens Vertical Visibility of 0ft.
Broken Clouds 2300ft
Pressão 1014
Mudança No Significant change. Runway 06: Wet snow, 51-100% contamination with 5mm, friction coefficient 0.35.
Bruto UUWW 222200Z 09004MPS 4900 -SN BKN006 BKN023 M04/M06 Q1014 R06/590535 NOSIG

TAF para 55.6°N 37.27°L (UUWW)

From till


Maximum Temperature -3ºC on . Minimum Temperature -8ºC on .
From till Wind 60º 6kt. Visibility 6000m. Light Snow . Few Clouds 400ft. Overcast 900ft.
Temporarly from till Visibility 2100m. Light Snow Mist . Broken Clouds 400ft.
Temporarly from till Visibility 305.775m. freezing Fog . Broken Clouds 300ft.

Bruto: TAF UUWW 230757Z 2309/2409 06003MPS 6000 -SN FEW004 OVC009 TXM03/2312Z TNM08/2406Z TEMPO 2312/2321 2100 -SN BR BKN004 TEMPO 2321/2406 0300 FZFG BKN003

Radar e precipitação nowcast para 55.6°N 37.27°L

Chuvisco
Leve
Moderado
Forte
Muito forte
Granizo

O marcador do lugar é colocado em 55.6°N 37.27°L. Esta animação mostra o radar de precipitação para a última hora, assim como a 1h previsão. A queda de neve pode ser invisível para o radar. A intensidade da precipitação é codificada por cores, variando do azul claro ao laranja.

Imagens atuais de satélite e precipitação para 55.6°N 37.27°L

O marcador de lugar é colocado em 55.6°N 37.27°L. [Mais]

A imagem de satélite em tempo real combina luz visível durante o dia com radiação infravermelha durante a noite. À noite, a imagem não é escura, pois a radiação infravermelha pode detectar diferenças de temperatura. Infelizmente, nuvens baixas e neblina são difíceis de distinguir das temperaturas do solo e, portanto, podem ser quase invisíveis durante a noite. As imagens de satélite Meteosat para a Europa são atualizadas em tempo real a cada 5 minutos. GOES-16/GOES-17 ( América do Norte e do Sul) e Himawari (Ásia) são atualizadas a cada 10 minutos.

Copyright 2022 EUMETSAT / meteoblue. / Copyright 2022 meteoblue